createdAt,value
2018-12-24T00:01:30.559Z,3.11
2018-12-24T00:09:32.523Z,4.20
2018-12-24T00:10:32.950Z,3.80
2018-12-24T00:11:33.632Z,2.99
2018-12-24T00:12:33.704Z,3.42
2018-12-24T00:13:34.144Z,4.57
2018-12-24T00:14:34.300Z,4.28
2018-12-24T00:15:34.436Z,1.52
2018-12-24T00:16:34.583Z,2.93
2018-12-24T00:17:34.751Z,3.33
2018-12-24T00:18:35.152Z,3.08
2018-12-24T00:19:35.417Z,3.82
2018-12-24T00:20:35.497Z,4.11
2018-12-24T00:21:35.618Z,3.64
2018-12-24T00:22:35.811Z,3.42
2018-12-24T00:23:35.954Z,3.67
2018-12-24T00:24:36.159Z,3.80
2018-12-24T00:25:36.491Z,2.00
2018-12-24T00:26:36.574Z,4.03
2018-12-24T00:27:36.815Z,2.86
2018-12-24T00:28:36.867Z,2.90
2018-12-24T00:29:36.956Z,1.75
2018-12-24T00:30:37.041Z,2.55
2018-12-24T00:31:37.231Z,2.20
2018-12-24T00:32:37.315Z,1.85
2018-12-24T00:33:37.379Z,1.83
2018-12-24T00:34:37.472Z,1.68
2018-12-24T00:35:37.633Z,2.28
2018-12-24T00:36:37.704Z,2.54
2018-12-24T00:37:38.035Z,1.94
2018-12-24T00:38:38.159Z,1.58
2018-12-24T00:39:38.433Z,1.40
2018-12-24T00:40:38.565Z,1.69
2018-12-24T00:41:38.688Z,1.37
2018-12-24T00:42:39.280Z,2.94
2018-12-24T00:43:39.492Z,1.75
2018-12-24T00:44:39.456Z,1.93
2018-12-24T00:45:39.736Z,1.32
2018-12-24T00:46:40.119Z,1.57
2018-12-24T00:47:40.404Z,1.01
2018-12-24T00:48:40.155Z,2.09
2018-12-24T00:49:43.277Z,2.11
2018-12-24T00:50:40.897Z,2.10
2018-12-24T00:51:41.385Z,1.73
2018-12-24T00:52:41.707Z,2.18
2018-12-24T00:53:42.060Z,2.28
2018-12-24T00:54:42.409Z,2.20
2018-12-24T00:55:42.999Z,1.98
2018-12-24T00:56:42.917Z,1.65
2018-12-24T00:57:43.270Z,1.65
2018-12-24T00:58:43.560Z,0.49
2018-12-24T00:59:44.149Z,1.11
2018-12-24T01:00:44.408Z,1.10
2018-12-24T01:01:44.666Z,2.69
2018-12-24T01:02:44.960Z,2.32
2018-12-24T01:03:45.569Z,1.67
2018-12-24T01:04:45.619Z,2.09
2018-12-24T01:05:46.189Z,1.14
2018-12-24T01:06:45.971Z,1.56
2018-12-24T01:07:46.232Z,1.97
2018-12-24T01:08:46.763Z,1.91
2018-12-24T01:09:46.634Z,2.52
2018-12-24T01:10:46.883Z,3.03
2018-12-24T01:11:47.130Z,1.59
2018-12-24T01:12:47.385Z,3.24
2018-12-24T01:13:47.442Z,2.50
2018-12-24T01:14:47.974Z,2.66
2018-12-24T01:15:48.616Z,3.06
2018-12-24T01:16:49.013Z,3.16
2018-12-24T01:17:49.129Z,3.14
2018-12-24T01:18:49.316Z,1.59
2018-12-24T01:19:49.499Z,1.25
2018-12-24T01:20:49.516Z,1.58
2018-12-24T01:21:49.521Z,1.49
2018-12-24T01:22:49.705Z,2.76
2018-12-24T01:23:49.776Z,1.13
2018-12-24T01:24:50.024Z,1.22
2018-12-24T01:25:50.128Z,2.44
2018-12-24T01:26:50.580Z,2.38
2018-12-24T01:27:50.688Z,2.87
2018-12-24T01:28:50.891Z,2.31
2018-12-24T01:29:51.005Z,1.94
2018-12-24T01:30:51.111Z,2.24
2018-12-24T01:31:51.220Z,1.63
2018-12-24T01:32:51.211Z,2.99
2018-12-24T01:33:51.359Z,0.97
2018-12-24T01:34:51.448Z,1.32
2018-12-24T01:35:51.535Z,1.17
2018-12-24T01:36:51.596Z,2.38
2018-12-24T01:37:51.432Z,1.79
2018-12-24T01:38:52.063Z,2.19
2018-12-24T01:39:52.136Z,2.27
2018-12-24T01:40:52.263Z,2.41
2018-12-24T01:41:52.380Z,0.90
2018-12-24T01:42:52.422Z,1.82
2018-12-24T01:43:52.479Z,2.48
2018-12-24T01:44:52.597Z,1.00
2018-12-24T01:45:52.760Z,0.80
2018-12-24T01:46:52.827Z,1.19
2018-12-24T01:47:52.876Z,1.52
2018-12-24T01:48:52.924Z,2.77
2018-12-24T01:50:53.483Z,1.82
2018-12-24T01:51:53.567Z,1.48
2018-12-24T01:52:53.671Z,1.21
2018-12-24T01:53:53.728Z,1.65
2018-12-24T01:54:53.807Z,0.70
2018-12-24T01:55:54.129Z,0.86
2018-12-24T01:56:54.396Z,2.94
2018-12-24T01:57:54.876Z,2.07
2018-12-24T01:58:55.114Z,1.20
2018-12-24T01:59:55.262Z,1.45
2018-12-24T02:00:55.495Z,1.59
2018-12-24T02:01:55.775Z,2.93
2018-12-24T02:02:55.990Z,1.69
2018-12-24T02:03:56.381Z,1.64
2018-12-24T02:04:56.639Z,1.98
2018-12-24T02:05:57.173Z,1.38
2018-12-24T02:06:57.045Z,1.21
2018-12-24T02:07:57.194Z,1.11
2018-12-24T02:08:57.603Z,1.56
2018-12-24T02:09:57.758Z,2.00
2018-12-24T02:10:58.077Z,1.53
2018-12-24T02:11:58.369Z,2.84
2018-12-24T02:12:58.783Z,1.71
2018-12-24T02:13:59.046Z,2.22
2018-12-24T02:14:59.416Z,2.96
2018-12-24T02:15:59.737Z,2.95
2018-12-24T02:16:59.686Z,2.42
2018-12-24T02:18:00.091Z,1.81
2018-12-24T02:19:00.322Z,2.28
2018-12-24T02:20:00.714Z,3.60
2018-12-24T02:21:01.061Z,3.02
2018-12-24T02:22:00.946Z,1.40
2018-12-24T02:23:01.454Z,2.62
2018-12-24T02:24:02.005Z,1.86
2018-12-24T02:25:02.077Z,2.73
2018-12-24T02:26:02.343Z,2.92
2018-12-24T02:27:02.598Z,2.07
2018-12-24T02:28:02.930Z,2.31
2018-12-24T02:29:03.579Z,2.08
2018-12-24T02:30:03.893Z,1.91
2018-12-24T02:31:03.878Z,2.03
2018-12-24T02:32:03.905Z,2.03
2018-12-24T02:33:04.051Z,2.00
2018-12-24T02:34:04.078Z,2.60
2018-12-24T02:35:04.183Z,1.92
2018-12-24T02:36:04.287Z,3.79
2018-12-24T02:37:04.420Z,1.94
2018-12-24T02:38:04.529Z,2.06
2018-12-24T02:39:04.741Z,2.57
2018-12-24T02:40:04.837Z,1.13
2018-12-24T02:41:04.971Z,2.30
2018-12-24T02:42:05.108Z,2.57
2018-12-24T02:43:05.291Z,1.55
2018-12-24T02:44:05.342Z,1.18
2018-12-24T02:45:05.455Z,2.67
2018-12-24T02:46:05.608Z,0.80
2018-12-24T02:47:05.757Z,0.87
2018-12-24T02:48:05.840Z,1.90
2018-12-24T02:49:06.288Z,2.23
2018-12-24T02:50:09.536Z,0.88
2018-12-24T02:51:06.758Z,2.05
2018-12-24T02:52:06.964Z,2.86
2018-12-24T02:53:07.048Z,2.66
2018-12-24T02:54:07.177Z,1.60
2018-12-24T02:55:07.207Z,0.69
2018-12-24T02:56:07.385Z,1.47
2018-12-24T02:57:07.608Z,1.39
2018-12-24T02:58:07.690Z,1.42
2018-12-24T02:59:07.674Z,1.00
2018-12-24T03:00:07.765Z,0.80
2018-12-24T03:01:07.792Z,0.73
2018-12-24T03:02:08.127Z,0.69
2018-12-24T03:03:07.914Z,0.62
2018-12-24T03:04:08.570Z,1.26
2018-12-24T03:05:08.883Z,1.18
2018-12-24T03:06:09.049Z,0.82
2018-12-24T03:07:09.042Z,0.72
2018-12-24T03:08:09.344Z,2.56
2018-12-24T03:09:09.562Z,1.49
2018-12-24T03:10:09.717Z,0.65
2018-12-24T03:11:10.061Z,1.98
2018-12-24T03:12:10.402Z,3.65
2018-12-24T03:13:10.762Z,2.30
2018-12-24T03:14:11.013Z,2.90
2018-12-24T03:15:11.492Z,3.31
2018-12-24T03:16:11.761Z,3.15
2018-12-24T03:17:12.024Z,3.34
2018-12-24T03:18:12.141Z,3.81
2018-12-24T03:19:12.383Z,2.16
2018-12-24T03:20:12.627Z,2.49
2018-12-24T03:21:12.994Z,2.08
2018-12-24T03:22:13.337Z,2.63
2018-12-24T03:23:13.588Z,2.49
2018-12-24T03:24:13.868Z,3.35
2018-12-24T03:25:14.295Z,2.37
2018-12-24T03:26:14.572Z,1.43
2018-12-24T03:27:14.741Z,1.61
2018-12-24T03:28:15.283Z,2.57
2018-12-24T03:29:15.034Z,2.24
2018-12-24T03:30:18.041Z,2.66
2018-12-24T03:31:15.839Z,2.27
2018-12-24T03:32:16.218Z,1.62
2018-12-24T03:33:16.549Z,1.84
2018-12-24T03:34:16.657Z,0.86
2018-12-24T03:35:16.928Z,1.62
2018-12-24T03:36:17.633Z,2.05
2018-12-24T03:37:17.677Z,1.48
2018-12-24T03:38:17.450Z,2.13
2018-12-24T03:39:17.730Z,2.19
2018-12-24T03:40:18.087Z,1.52
2018-12-24T03:41:18.292Z,1.00
2018-12-24T03:42:18.819Z,1.65
2018-12-24T03:43:19.328Z,1.82
2018-12-24T03:44:19.501Z,1.41
2018-12-24T03:45:19.839Z,1.29
2018-12-24T03:46:19.951Z,1.01
2018-12-24T03:47:20.042Z,0.90
2018-12-24T03:48:20.182Z,0.66
2018-12-24T03:49:20.317Z,1.60
2018-12-24T03:50:20.453Z,1.85
2018-12-24T03:51:20.574Z,1.31
2018-12-24T03:52:20.699Z,1.82
2018-12-24T03:53:20.777Z,2.01
2018-12-24T03:54:20.893Z,3.22
2018-12-24T03:55:21.011Z,2.29
2018-12-24T03:56:21.062Z,1.45
2018-12-24T03:57:21.120Z,1.40
2018-12-24T03:58:21.178Z,1.97
2018-12-24T03:59:21.243Z,2.78
2018-12-24T04:00:21.654Z,2.02
2018-12-24T04:01:21.786Z,1.72
2018-12-24T04:02:22.235Z,2.86
2018-12-24T04:03:22.294Z,1.56
2018-12-24T04:04:22.342Z,2.12
2018-12-24T04:05:22.678Z,2.42
2018-12-24T04:06:22.753Z,3.15
2018-12-24T04:07:22.800Z,2.03
2018-12-24T04:08:22.872Z,0.83
2018-12-24T04:09:23.020Z,1.56
2018-12-24T04:10:23.074Z,2.07
2018-12-24T04:11:24.254Z,1.69
2018-12-24T04:12:23.215Z,2.20
2018-12-24T04:13:23.271Z,1.86
2018-12-24T04:14:23.319Z,1.85
2018-12-24T04:15:25.813Z,0.61
2018-12-24T04:16:23.603Z,1.27
2018-12-24T04:17:24.330Z,1.64
2018-12-24T04:18:24.420Z,1.35
2018-12-24T04:19:24.486Z,0.82
2018-12-24T04:20:24.591Z,0.93
2018-12-24T04:21:24.670Z,0.85
2018-12-24T04:22:24.723Z,0.73
2018-12-24T04:23:25.026Z,2.38
2018-12-24T04:24:25.259Z,1.35
2018-12-24T04:25:25.549Z,2.11
2018-12-24T04:26:25.757Z,0.63
2018-12-24T04:27:26.303Z,1.72
2018-12-24T04:28:26.580Z,1.01
2018-12-24T04:29:26.861Z,1.44
2018-12-24T04:30:27.138Z,1.69
2018-12-24T04:31:27.380Z,1.76
2018-12-24T04:32:27.636Z,1.28
2018-12-24T04:33:28.016Z,1.25
2018-12-24T04:34:28.269Z,1.51
2018-12-24T04:35:28.511Z,1.45
2018-12-24T04:36:28.882Z,2.04
2018-12-24T04:37:29.386Z,3.81
2018-12-24T04:38:29.329Z,2.85
2018-12-24T04:39:29.393Z,3.29
2018-12-24T04:40:29.691Z,2.36
2018-12-24T04:41:29.839Z,3.62
2018-12-24T04:43:32.414Z,2.63
2018-12-24T04:44:30.806Z,3.52
2018-12-24T04:45:31.057Z,3.39
2018-12-24T04:46:31.375Z,2.46
2018-12-24T04:47:31.654Z,2.30
2018-12-24T04:48:31.878Z,1.53
2018-12-24T04:49:31.980Z,3.38
2018-12-24T04:50:32.357Z,2.36
2018-12-24T04:51:32.766Z,3.36
2018-12-24T04:52:33.158Z,1.59
2018-12-24T04:53:33.684Z,1.45
2018-12-24T04:54:33.771Z,2.24
2018-12-24T04:55:33.883Z,2.10
2018-12-24T04:56:34.039Z,1.80
2018-12-24T04:57:34.152Z,1.28
2018-12-24T04:58:34.276Z,1.11
2018-12-24T04:59:34.646Z,2.05
2018-12-24T05:00:34.780Z,0.99
2018-12-24T05:01:35.261Z,1.54
2018-12-24T05:02:35.391Z,2.35
2018-12-24T05:03:35.809Z,1.88
2018-12-24T05:04:35.900Z,1.82
2018-12-24T05:05:35.991Z,1.80
2018-12-24T05:06:36.106Z,1.65
2018-12-24T05:07:36.522Z,2.12
2018-12-24T05:08:36.538Z,1.66
2018-12-24T05:09:36.642Z,4.33
2018-12-24T05:10:36.740Z,2.76
2018-12-24T05:11:36.870Z,1.99
2018-12-24T05:12:36.960Z,3.00
2018-12-24T05:13:40.935Z,2.38
2018-12-24T05:14:37.163Z,3.89
2018-12-24T05:15:37.243Z,4.82
2018-12-24T05:16:37.551Z,4.09
2018-12-24T05:17:37.915Z,3.88
2018-12-24T05:18:37.996Z,3.61
2018-12-24T05:19:38.413Z,2.52
2018-12-24T05:20:38.511Z,2.09
2018-12-24T05:21:38.564Z,3.45
2018-12-24T05:22:38.642Z,1.58
2018-12-24T05:23:38.874Z,2.66
2018-12-24T05:24:39.500Z,3.06
2018-12-24T05:25:39.542Z,3.67
2018-12-24T05:26:39.692Z,3.25
2018-12-24T05:27:39.772Z,2.13
2018-12-24T05:28:39.727Z,1.50
2018-12-24T05:29:40.003Z,3.04
2018-12-24T05:30:40.362Z,2.87
2018-12-24T05:32:40.660Z,2.40
2018-12-24T05:33:41.010Z,2.42
2018-12-24T05:34:41.504Z,1.81
2018-12-24T05:35:41.755Z,3.19
2018-12-24T05:36:42.091Z,2.39
2018-12-24T05:37:42.427Z,1.85
2018-12-24T05:38:42.550Z,2.09
2018-12-24T05:39:43.104Z,2.12
2018-12-24T05:40:42.865Z,2.43
2018-12-24T05:41:43.147Z,3.19
2018-12-24T05:42:43.627Z,2.89
2018-12-24T05:43:49.449Z,2.41
2018-12-24T05:44:44.442Z,1.92
2018-12-24T05:45:44.755Z,1.53
2018-12-24T05:46:44.831Z,2.17
2018-12-24T05:47:45.175Z,1.17
2018-12-24T05:48:45.504Z,1.41
2018-12-24T05:49:45.262Z,1.92
2018-12-24T05:50:45.499Z,1.62
2018-12-24T05:51:45.748Z,1.17
2018-12-24T05:52:46.009Z,0.98
2018-12-24T05:53:46.291Z,1.41
2018-12-24T05:54:46.570Z,1.59
2018-12-24T05:55:46.856Z,1.35
2018-12-24T05:56:47.114Z,2.22
2018-12-24T05:57:47.371Z,2.36
2018-12-24T05:58:47.955Z,1.90
2018-12-24T05:59:48.283Z,1.82
2018-12-24T06:00:48.648Z,1.76
2018-12-24T06:01:48.754Z,0.94
2018-12-24T06:02:48.796Z,1.86
2018-12-24T06:03:48.927Z,3.23
2018-12-24T06:04:48.961Z,1.21
2018-12-24T06:06:49.081Z,1.91
2018-12-24T06:07:49.200Z,1.30
2018-12-24T06:08:49.348Z,2.38
2018-12-24T06:09:49.742Z,1.82
2018-12-24T06:12:49.961Z,0.84
2018-12-24T06:13:57.779Z,1.23
2018-12-24T06:14:50.271Z,1.83
2018-12-24T06:15:50.426Z,1.80
2018-12-24T06:16:50.557Z,1.18
2018-12-24T06:17:50.661Z,1.45
2018-12-24T06:18:50.816Z,0.63
2018-12-24T06:19:50.930Z,1.59
2018-12-24T06:20:51.030Z,1.17
2018-12-24T06:21:51.152Z,0.85
2018-12-24T06:22:51.182Z,0.73
2018-12-24T06:23:51.490Z,0.51
2018-12-24T06:24:51.571Z,1.62
2018-12-24T06:25:51.615Z,1.85
2018-12-24T06:26:51.736Z,1.45
2018-12-24T06:27:51.883Z,0.66
2018-12-24T06:28:52.006Z,1.36
2018-12-24T06:29:52.097Z,0.92
2018-12-24T06:30:52.522Z,0.69
2018-12-24T06:31:52.575Z,0.76
2018-12-24T06:32:52.626Z,0.97
2018-12-24T06:33:52.747Z,2.10
2018-12-24T06:34:52.845Z,0.93
2018-12-24T06:35:52.894Z,0.58
2018-12-24T06:36:52.973Z,0.92
2018-12-24T06:37:52.983Z,0.94
2018-12-24T06:38:53.332Z,0.49
2018-12-24T06:39:53.654Z,0.39
2018-12-24T06:40:54.109Z,0.49
2018-12-24T06:41:54.202Z,0.48
2018-12-24T06:42:54.210Z,0.67
2018-12-24T06:43:54.465Z,0.98
2018-12-24T06:44:54.719Z,0.62
2018-12-24T06:45:55.014Z,0.84
2018-12-24T06:46:55.257Z,1.40
2018-12-24T06:47:55.544Z,1.84
2018-12-24T06:48:55.869Z,1.13
2018-12-24T06:49:55.598Z,1.23
2018-12-24T06:51:55.972Z,1.07
2018-12-24T06:52:56.264Z,1.27
2018-12-24T06:53:56.021Z,0.95
2018-12-24T06:54:56.281Z,0.60
2018-12-24T06:55:56.612Z,0.59
2018-12-24T06:56:57.101Z,0.21
2018-12-24T06:57:56.929Z,1.04
2018-12-24T06:58:57.483Z,2.86
2018-12-24T06:59:57.300Z,2.28
2018-12-24T07:00:57.641Z,0.60
2018-12-24T07:01:57.929Z,0.70
2018-12-24T07:02:58.183Z,1.22
2018-12-24T07:03:58.441Z,0.81
2018-12-24T07:04:58.709Z,0.87
2018-12-24T07:05:58.961Z,0.69
2018-12-24T07:06:59.122Z,0.55
2018-12-24T07:07:59.355Z,0.01
2018-12-24T07:08:59.830Z,0.00
2018-12-24T07:10:00.076Z,0.63
2018-12-24T07:11:00.629Z,0.76
2018-12-24T07:12:00.832Z,0.48
2018-12-24T07:13:01.407Z,0.60
2018-12-24T07:14:01.428Z,0.01
2018-12-24T07:15:01.414Z,0.00
2018-12-24T07:16:01.531Z,0.01
2018-12-24T07:17:01.567Z,0.00
2018-12-24T07:18:01.446Z,0.14
2018-12-24T07:19:02.011Z,0.24
2018-12-24T07:20:02.126Z,0.47
2018-12-24T07:21:02.184Z,0.59
2018-12-24T07:22:02.266Z,1.03
2018-12-24T07:23:02.178Z,0.73
2018-12-24T07:24:02.730Z,0.13
2018-12-24T07:25:02.791Z,0.44
2018-12-24T07:26:02.842Z,0.80
2018-12-24T07:27:02.932Z,0.89
2018-12-24T07:28:02.946Z,0.45
2018-12-24T07:29:03.018Z,0.41
2018-12-24T07:30:03.154Z,0.03
2018-12-24T07:31:03.269Z,0.00
2018-12-24T07:32:03.377Z,0.11
2018-12-24T07:33:03.484Z,0.48
2018-12-24T07:34:03.600Z,0.31
2018-12-24T07:35:03.711Z,0.62
2018-12-24T07:36:03.781Z,1.01
2018-12-24T07:37:04.104Z,0.84
2018-12-24T07:38:04.238Z,0.45
2018-12-24T07:39:04.233Z,0.58
2018-12-24T07:40:04.464Z,0.58
2018-12-24T07:41:04.814Z,0.35
2018-12-24T07:42:04.928Z,0.45
2018-12-24T07:43:05.080Z,0.21
2018-12-24T07:44:05.188Z,0.49
2018-12-24T07:45:05.338Z,0.21
2018-12-24T07:46:05.405Z,0.60
2018-12-24T07:47:05.440Z,0.86
2018-12-24T07:48:05.777Z,0.70
2018-12-24T07:49:06.143Z,0.41
2018-12-24T07:50:06.294Z,0.37
2018-12-24T07:51:06.413Z,0.34
2018-12-24T07:52:06.757Z,0.53
2018-12-24T07:53:06.795Z,0.59
2018-12-24T07:54:06.946Z,0.42
2018-12-24T07:55:07.125Z,0.63
2018-12-24T07:56:07.210Z,0.38
2018-12-24T07:57:07.296Z,0.30
2018-12-24T07:58:07.187Z,0.79
2018-12-24T07:59:07.698Z,1.54
2018-12-24T08:00:07.739Z,0.61
2018-12-24T08:01:07.782Z,0.59
2018-12-24T08:02:07.824Z,1.06
2018-12-24T08:03:07.935Z,0.73
2018-12-24T08:04:07.993Z,0.58
2018-12-24T08:05:07.982Z,0.62
2018-12-24T08:06:08.554Z,0.41
2018-12-24T08:07:08.827Z,1.17
2018-12-24T08:08:08.906Z,1.11
2018-12-24T08:09:09.083Z,0.65
2018-12-24T08:10:09.161Z,0.75
2018-12-24T08:11:09.012Z,0.42
2018-12-24T08:12:09.653Z,0.56
2018-12-24T08:13:09.807Z,0.63
2018-12-24T08:14:09.666Z,0.48
2018-12-24T08:15:09.996Z,0.65
2018-12-24T08:16:10.537Z,1.05
2018-12-24T08:17:10.395Z,0.31
2018-12-24T08:18:10.663Z,0.39
2018-12-24T08:19:10.745Z,0.42
2018-12-24T08:20:11.195Z,0.39
2018-12-24T08:21:11.443Z,0.52
2018-12-24T08:22:11.696Z,0.41
2018-12-24T08:23:11.990Z,0.79
2018-12-24T08:24:12.365Z,0.73
2018-12-24T08:25:12.934Z,0.83
2018-12-24T08:26:12.696Z,0.72
2018-12-24T08:27:12.898Z,0.79
2018-12-24T08:28:13.266Z,1.70
2018-12-24T08:30:13.556Z,1.23
2018-12-24T08:31:14.200Z,1.72
2018-12-24T08:32:14.487Z,1.05
2018-12-24T08:33:14.726Z,0.93
2018-12-24T08:34:15.121Z,0.87
2018-12-24T08:35:15.699Z,0.44
2018-12-24T08:36:15.481Z,0.44
2018-12-24T08:37:15.670Z,0.76
2018-12-24T08:38:15.939Z,0.35
2018-12-24T08:39:16.511Z,0.18
2018-12-24T08:40:16.922Z,0.25
2018-12-24T08:41:17.289Z,0.42
2018-12-24T08:42:17.756Z,0.95
2018-12-24T08:43:18.353Z,1.15
2018-12-24T08:44:18.709Z,0.77
2018-12-24T08:45:18.781Z,1.03
2018-12-24T08:46:18.914Z,0.63
2018-12-24T08:48:19.030Z,0.16
2018-12-24T08:49:19.132Z,0.85
2018-12-24T08:50:19.242Z,0.35
2018-12-24T08:51:19.344Z,0.56
2018-12-24T08:52:19.460Z,0.46
2018-12-24T08:53:19.563Z,0.24
2018-12-24T08:54:19.672Z,0.79
2018-12-24T08:55:19.796Z,1.11
2018-12-24T08:56:22.612Z,0.45
2018-12-24T08:57:20.271Z,0.41
2018-12-24T08:58:20.427Z,0.52
2018-12-24T08:59:20.582Z,1.38
2018-12-24T09:00:20.673Z,0.63
2018-12-24T09:01:20.780Z,0.37
2018-12-24T09:02:20.830Z,0.32
2018-12-24T09:03:20.855Z,0.32
2018-12-24T09:04:20.962Z,0.32
2018-12-24T09:05:21.062Z,0.45
2018-12-24T09:06:21.094Z,0.76
2018-12-24T09:07:21.154Z,1.24
2018-12-24T09:08:21.194Z,1.06
2018-12-24T09:09:21.286Z,0.93
2018-12-24T09:10:21.405Z,1.16
2018-12-24T09:11:21.487Z,1.58
2018-12-24T09:12:21.557Z,0.72
2018-12-24T09:13:21.633Z,0.58
2018-12-24T09:14:21.696Z,1.21
2018-12-24T09:15:22.148Z,0.66
2018-12-24T09:16:22.225Z,1.04
2018-12-24T09:17:22.294Z,0.56
2018-12-24T09:18:22.370Z,0.30
2018-12-24T09:19:22.728Z,0.98
2018-12-24T09:20:22.793Z,2.30
2018-12-24T09:21:23.204Z,2.99
2018-12-24T09:22:23.274Z,2.47
2018-12-24T09:23:23.352Z,1.47
2018-12-24T09:24:23.452Z,0.13
2018-12-24T09:25:23.549Z,2.03
2018-12-24T09:26:23.601Z,3.20
2018-12-24T09:27:23.661Z,2.40
2018-12-24T09:28:23.720Z,3.84
2018-12-24T09:29:23.776Z,4.35
2018-12-24T09:30:23.884Z,4.03
2018-12-24T09:31:23.867Z,4.52
2018-12-24T09:32:24.485Z,2.13
2018-12-24T09:33:24.635Z,2.29
2018-12-24T09:34:24.788Z,1.86
2018-12-24T09:35:25.216Z,1.66
2018-12-24T09:36:24.569Z,1.89
2018-12-24T09:37:25.036Z,2.62
2018-12-24T09:38:25.548Z,3.81
2018-12-24T09:39:25.479Z,2.39
2018-12-24T09:40:25.843Z,1.36
2018-12-24T09:41:26.162Z,2.00
2018-12-24T09:42:26.592Z,2.92
2018-12-24T09:43:27.013Z,1.74
2018-12-24T09:44:27.259Z,2.23
2018-12-24T09:45:27.645Z,3.61
2018-12-24T09:46:27.723Z,2.22
2018-12-24T09:47:27.761Z,1.20
2018-12-24T09:48:28.103Z,1.56
2018-12-24T09:49:28.349Z,2.12
2018-12-24T09:50:28.683Z,3.11
2018-12-24T09:51:28.949Z,2.22
2018-12-24T09:52:29.198Z,2.12
2018-12-24T09:53:29.668Z,1.56
2018-12-24T09:54:29.901Z,1.25
2018-12-24T09:55:30.161Z,1.59
2018-12-24T09:56:30.443Z,2.39
2018-12-24T09:57:30.891Z,1.87
2018-12-24T09:58:31.369Z,1.36
2018-12-24T09:59:31.889Z,0.83
2018-12-24T10:00:31.657Z,1.99
2018-12-24T10:01:31.949Z,0.72
2018-12-24T10:02:32.224Z,1.35
2018-12-24T10:03:32.601Z,0.65
2018-12-24T10:05:32.475Z,1.43
2018-12-24T10:06:32.536Z,0.95
2018-12-24T10:07:32.849Z,2.29
2018-12-24T10:08:33.117Z,1.68
2018-12-24T10:09:33.795Z,1.64
2018-12-24T10:10:33.922Z,1.52
2018-12-24T10:11:34.015Z,1.52
2018-12-24T10:12:34.167Z,1.56
2018-12-24T10:13:34.240Z,1.08
2018-12-24T10:14:34.352Z,0.87
2018-12-24T10:15:34.477Z,1.11
2018-12-24T10:16:34.892Z,0.70
2018-12-24T10:17:35.053Z,2.70
2018-12-24T10:18:35.514Z,2.55
2018-12-24T10:19:35.811Z,2.62
2018-12-24T10:20:36.213Z,1.04
2018-12-24T10:21:36.575Z,1.57
2018-12-24T10:22:36.367Z,1.89
2018-12-24T10:23:36.967Z,1.19
2018-12-24T10:24:37.086Z,0.70
2018-12-24T10:25:37.401Z,0.95
2018-12-24T10:26:37.462Z,1.24
2018-12-24T10:27:37.576Z,0.54
2018-12-24T10:28:37.706Z,1.04
2018-12-24T10:29:37.808Z,1.57
2018-12-24T10:30:37.883Z,1.24
2018-12-24T10:31:37.924Z,1.39
2018-12-24T10:32:37.965Z,1.45
2018-12-24T10:33:38.002Z,0.90
2018-12-24T10:34:38.049Z,0.73
2018-12-24T10:35:39.665Z,1.20
2018-12-24T10:36:38.152Z,1.41
2018-12-24T10:37:38.238Z,1.07
2018-12-24T10:38:38.119Z,1.30
2018-12-24T10:39:38.705Z,2.05
2018-12-24T10:40:38.755Z,1.56
2018-12-24T10:41:39.063Z,0.91
2018-12-24T10:42:38.986Z,1.79
2018-12-24T10:43:39.245Z,0.98
2018-12-24T10:44:39.524Z,0.82
2018-12-24T10:45:40.064Z,0.52
2018-12-24T10:46:40.123Z,0.35
2018-12-24T10:47:40.469Z,0.29
2018-12-24T10:48:40.786Z,0.25
2018-12-24T10:49:40.935Z,0.54
2018-12-24T10:50:40.989Z,1.18
2018-12-24T10:51:41.111Z,1.37
2018-12-24T10:52:41.368Z,0.77
2018-12-24T10:53:41.644Z,0.73
2018-12-24T10:54:41.955Z,0.95
2018-12-24T10:55:42.274Z,1.00
2018-12-24T10:56:42.515Z,0.84
2018-12-24T10:57:42.929Z,1.65
2018-12-24T10:58:43.220Z,0.76
2018-12-24T10:59:43.813Z,0.94
2018-12-24T11:00:43.838Z,1.36
2018-12-24T11:01:44.796Z,1.29
2018-12-24T11:02:44.414Z,0.94
2018-12-24T11:03:44.680Z,0.65
2018-12-24T11:04:45.148Z,1.03
2018-12-24T11:05:45.386Z,0.88
2018-12-24T11:06:45.658Z,0.89
2018-12-24T11:07:45.952Z,1.17
2018-12-24T11:08:46.437Z,0.81
2018-12-24T11:09:46.735Z,1.94
2018-12-24T11:10:46.838Z,2.18
2018-12-24T11:11:47.044Z,1.40
2018-12-24T11:12:47.396Z,1.98
2018-12-24T11:13:47.751Z,2.13
2018-12-24T11:14:48.399Z,3.12
2018-12-24T11:15:48.929Z,1.43
2018-12-24T11:16:49.451Z,4.16
2018-12-24T11:17:49.443Z,3.80
2018-12-24T11:18:49.531Z,2.17
2018-12-24T11:19:49.644Z,3.40
2018-12-24T11:20:49.729Z,1.83
2018-12-24T11:21:50.930Z,1.64
2018-12-24T11:22:50.528Z,2.20
2018-12-24T11:23:51.809Z,2.66
2018-12-24T11:24:50.708Z,2.26
2018-12-24T11:25:50.868Z,3.52
2018-12-24T11:26:51.186Z,2.80
2018-12-24T11:27:51.210Z,2.31
2018-12-24T11:28:51.253Z,1.55
2018-12-24T11:29:51.359Z,1.55
2018-12-24T11:30:51.386Z,3.14
2018-12-24T11:31:51.413Z,2.01
2018-12-24T11:32:51.482Z,1.85
2018-12-24T11:33:51.545Z,1.73
2018-12-24T11:34:51.617Z,1.71
2018-12-24T11:35:51.992Z,2.80
2018-12-24T11:36:52.064Z,2.03
2018-12-24T11:37:52.363Z,2.40
2018-12-24T11:38:52.409Z,2.07
2018-12-24T11:39:52.496Z,2.50
2018-12-24T11:40:52.598Z,2.01
2018-12-24T11:41:52.657Z,1.71
2018-12-24T11:42:52.702Z,2.09
2018-12-24T11:43:52.751Z,2.87
2018-12-24T11:45:53.030Z,2.39
2018-12-24T11:46:53.002Z,2.10
2018-12-24T11:47:53.080Z,2.05
2018-12-24T11:48:53.386Z,2.92
2018-12-24T11:49:54.031Z,2.69
2018-12-24T11:50:54.003Z,1.69
2018-12-24T11:52:54.612Z,1.85
2018-12-24T11:53:54.440Z,1.92
2018-12-24T11:55:54.738Z,1.54
2018-12-24T11:56:54.998Z,1.81
2018-12-24T11:57:55.775Z,1.63
2018-12-24T11:58:55.510Z,1.95
2018-12-24T11:59:55.933Z,1.63
2018-12-24T12:00:56.171Z,1.88
2018-12-24T12:01:56.484Z,1.88
2018-12-24T12:02:56.973Z,2.60
2018-12-24T12:03:57.247Z,3.49
2018-12-24T12:04:57.793Z,1.60
2018-12-24T12:05:58.327Z,1.42
2018-12-24T12:06:58.770Z,1.99
2018-12-24T12:07:58.777Z,2.22
2018-12-24T12:08:59.096Z,1.33
2018-12-24T12:09:59.314Z,2.49
2018-12-24T12:11:01.589Z,2.31
2018-12-24T12:11:59.880Z,3.03
2018-12-24T12:13:00.476Z,1.84
2018-12-24T12:14:00.308Z,2.68
2018-12-24T12:15:00.807Z,1.77
2018-12-24T12:16:00.757Z,2.23
2018-12-24T12:17:01.132Z,1.81
2018-12-24T12:18:01.446Z,1.06
2018-12-24T12:19:01.471Z,1.44
2018-12-24T12:20:01.981Z,1.95
2018-12-24T12:21:02.243Z,2.29
2018-12-24T12:22:02.342Z,1.42
2018-12-24T12:23:02.286Z,2.16
2018-12-24T12:24:02.831Z,1.50
2018-12-24T12:25:02.917Z,1.41
2018-12-24T12:26:03.009Z,2.59
2018-12-24T12:27:03.113Z,2.17
2018-12-24T12:28:03.215Z,1.49
2018-12-24T12:29:03.343Z,0.61
2018-12-24T12:30:03.850Z,0.80
2018-12-24T12:31:03.951Z,1.82
2018-12-24T12:32:04.290Z,1.29
2018-12-24T12:33:04.131Z,2.44
2018-12-24T12:34:05.226Z,2.19
2018-12-24T12:36:04.806Z,1.37
2018-12-24T12:37:05.281Z,1.54
2018-12-24T12:38:05.371Z,1.49
2018-12-24T12:39:05.788Z,2.31
2018-12-24T12:40:05.944Z,2.29
2018-12-24T12:41:06.083Z,1.42
2018-12-24T12:42:06.239Z,2.73
2018-12-24T12:43:06.373Z,2.96
2018-12-24T12:44:06.453Z,1.43
2018-12-24T12:45:06.558Z,1.26
2018-12-24T12:46:06.687Z,0.76
2018-12-24T12:47:06.849Z,0.44
2018-12-24T12:48:06.887Z,1.14
2018-12-24T12:49:07.007Z,0.96
2018-12-24T12:50:07.124Z,1.44
2018-12-24T12:51:07.211Z,1.51
2018-12-24T12:52:07.249Z,0.95
2018-12-24T12:53:07.571Z,1.47
2018-12-24T12:54:07.506Z,2.05
2018-12-24T12:55:08.044Z,1.54
2018-12-24T12:56:08.020Z,1.45
2018-12-24T12:57:08.571Z,1.90
2018-12-24T12:58:08.646Z,2.89
2018-12-24T12:59:08.679Z,2.10
2018-12-24T13:00:08.728Z,1.27
2018-12-24T13:01:08.800Z,1.13
2018-12-24T13:02:08.886Z,2.02
2018-12-24T13:03:08.711Z,1.34
2018-12-24T13:04:09.300Z,1.22
2018-12-24T13:05:09.373Z,1.08
2018-12-24T13:06:09.339Z,1.11
2018-12-24T13:07:09.688Z,2.24
2018-12-24T13:08:09.940Z,0.76
2018-12-24T13:09:10.199Z,1.26
2018-12-24T13:10:10.415Z,0.49
2018-12-24T13:11:10.962Z,0.70
2018-12-24T13:12:11.005Z,1.34
2018-12-24T13:13:11.352Z,0.66
2018-12-24T13:14:11.312Z,0.72
2018-12-24T13:15:11.438Z,0.79
2018-12-24T13:16:11.765Z,1.54
2018-12-24T13:17:12.032Z,1.09
2018-12-24T13:18:12.538Z,0.81
2018-12-24T13:19:12.782Z,0.45
2018-12-24T13:20:13.240Z,0.76
2018-12-24T13:21:13.783Z,1.74
2018-12-24T13:22:13.561Z,0.90
2018-12-24T13:23:13.864Z,0.67
2018-12-24T13:24:14.264Z,1.04
2018-12-24T13:25:14.828Z,2.66
2018-12-24T13:26:14.800Z,2.43
2018-12-24T13:27:14.858Z,1.90
2018-12-24T13:28:15.144Z,1.66
2018-12-24T13:29:15.475Z,2.36
2018-12-24T13:30:16.069Z,2.01
2018-12-24T13:31:16.134Z,1.62
2018-12-24T13:32:16.200Z,3.18
2018-12-24T13:33:16.550Z,2.58
2018-12-24T13:34:16.833Z,1.88
2018-12-24T13:35:17.376Z,2.56
2018-12-24T13:36:17.392Z,1.82
2018-12-24T13:37:17.756Z,3.19
2018-12-24T13:38:17.850Z,1.63
2018-12-24T13:39:18.386Z,2.39
2018-12-24T13:40:18.426Z,2.34
2018-12-24T13:41:18.516Z,2.06
2018-12-24T13:43:18.625Z,1.48
2018-12-24T13:44:18.726Z,0.96